createdAt,value
2023-03-31T00:01:24.301Z,99766.25
2023-03-31T00:03:52.415Z,99769.84
2023-03-31T00:06:20.375Z,99768.47
2023-03-31T00:08:52.603Z,99767.91
2023-03-31T00:11:21.561Z,99766.66
2023-03-31T00:13:49.826Z,99746.63
2023-03-31T00:16:17.842Z,99759.56
2023-03-31T00:18:47.659Z,99766.34
2023-03-31T00:21:25.042Z,99754.56
2023-03-31T00:23:57.278Z,99755.09
2023-03-31T00:26:28.152Z,99744.78
2023-03-31T00:28:56.762Z,99753.41
2023-03-31T00:31:25.764Z,99750.50
2023-03-31T00:33:53.785Z,99752.97
2023-03-31T00:36:27.331Z,99746.00
2023-03-31T00:38:59.218Z,99733.81
2023-03-31T00:41:27.634Z,99750.16
2023-03-31T00:44:10.721Z,99743.00
2023-03-31T00:46:47.219Z,99743.00
2023-03-31T00:49:24.415Z,99730.47
2023-03-31T00:51:55.278Z,99734.03
2023-03-31T00:54:28.127Z,99721.72
2023-03-31T00:56:58.671Z,99708.50
2023-03-31T00:59:31.614Z,99726.50
2023-03-31T01:02:02.762Z,99718.88
2023-03-31T01:04:34.756Z,99722.53
2023-03-31T01:07:09.375Z,99696.19
2023-03-31T01:09:39.346Z,99714.63
2023-03-31T01:12:10.196Z,99725.06
2023-03-31T01:14:38.092Z,99729.88
2023-03-31T01:17:09.939Z,99733.81
2023-03-31T01:19:52.004Z,99729.66
2023-03-31T01:22:59.566Z,99704.13
2023-03-31T01:26:05.001Z,99731.94
2023-03-31T01:28:42.141Z,99729.03
2023-03-31T01:31:41.539Z,99724.03
2023-03-31T01:35:04.027Z,99732.56
2023-03-31T01:38:05.864Z,99726.84
2023-03-31T01:40:47.602Z,99722.34
2023-03-31T01:43:24.785Z,99713.91
2023-03-31T01:46:00.120Z,99710.25
2023-03-31T01:48:36.798Z,99702.03
2023-03-31T01:51:09.901Z,99697.53
2023-03-31T01:53:46.502Z,99705.78
2023-03-31T01:56:21.834Z,99696.94
2023-03-31T01:58:54.382Z,99699.13
2023-03-31T02:01:31.140Z,99692.47
2023-03-31T02:04:04.466Z,99651.81
2023-03-31T02:06:37.699Z,99673.91
2023-03-31T02:09:10.888Z,99690.03
2023-03-31T02:11:42.055Z,99684.53
2023-03-31T02:14:13.231Z,99682.25
2023-03-31T02:16:47.758Z,99684.66
2023-03-31T02:19:19.746Z,99678.59
2023-03-31T02:21:49.936Z,99684.28
2023-03-31T02:24:20.841Z,99687.19
2023-03-31T02:26:56.108Z,99676.50
2023-03-31T02:29:24.671Z,99678.59
2023-03-31T02:31:59.863Z,99652.72
2023-03-31T02:34:28.006Z,99672.63
2023-03-31T02:36:56.478Z,99675.81
2023-03-31T02:39:29.300Z,99685.00
2023-03-31T02:41:58.681Z,99689.41
2023-03-31T02:44:26.630Z,99685.66
2023-03-31T02:46:55.544Z,99683.28
2023-03-31T02:49:23.723Z,99679.84
2023-03-31T02:52:23.549Z,99687.94
2023-03-31T02:55:11.142Z,99680.56
2023-03-31T02:58:05.678Z,99685.66
2023-03-31T03:00:46.840Z,99691.31
2023-03-31T03:03:30.003Z,99688.28
2023-03-31T03:06:07.203Z,99693.81
2023-03-31T03:08:55.739Z,99695.16
2023-03-31T03:11:32.878Z,99701.00
2023-03-31T03:14:12.700Z,99701.50
2023-03-31T03:16:44.889Z,99702.53
2023-03-31T03:19:20.551Z,99710.28
2023-03-31T03:21:48.773Z,99710.25
2023-03-31T03:24:16.993Z,99584.56
2023-03-31T03:26:45.043Z,99716.88
2023-03-31T03:29:14.876Z,99718.72
2023-03-31T03:31:43.176Z,99718.03
2023-03-31T03:34:11.588Z,99714.97
2023-03-31T03:36:40.240Z,99720.38
2023-03-31T03:39:09.175Z,99696.34
2023-03-31T03:41:37.111Z,99730.59
2023-03-31T03:44:05.239Z,99712.50
2023-03-31T03:46:34.616Z,99694.25
2023-03-31T03:49:02.640Z,99718.53
2023-03-31T03:51:30.740Z,99706.06
2023-03-31T03:53:58.717Z,99707.72
2023-03-31T03:56:27.332Z,99708.19
2023-03-31T03:58:55.283Z,99709.13
2023-03-31T04:01:23.507Z,99716.84
2023-03-31T04:03:52.770Z,99716.84
2023-03-31T04:06:20.854Z,99714.78
2023-03-31T04:08:48.757Z,99679.22
2023-03-31T04:11:19.348Z,99716.91
2023-03-31T04:13:47.959Z,99705.81
2023-03-31T04:16:16.867Z,99699.03
2023-03-31T04:18:45.028Z,99691.19
2023-03-31T04:21:22.901Z,99691.97
2023-03-31T04:23:58.703Z,99689.91
2023-03-31T04:26:31.056Z,99686.97
2023-03-31T04:29:00.322Z,99686.75
2023-03-31T04:31:30.902Z,99681.56
2023-03-31T04:34:02.539Z,99685.06
2023-03-31T04:36:32.442Z,99683.47
2023-03-31T04:39:01.334Z,99669.88
2023-03-31T04:41:29.481Z,99658.19
2023-03-31T04:43:57.413Z,99682.13
2023-03-31T04:46:25.655Z,99683.22
2023-03-31T04:48:53.929Z,99688.06
2023-03-31T04:51:21.898Z,99676.66
2023-03-31T04:53:51.168Z,99685.31
2023-03-31T04:56:19.160Z,99685.47
2023-03-31T04:58:47.369Z,99675.88
2023-03-31T05:01:26.010Z,99646.91
2023-03-31T05:03:53.997Z,99628.59
2023-03-31T05:06:21.942Z,99664.22
2023-03-31T05:08:51.222Z,99659.03
2023-03-31T05:11:19.181Z,99650.06
2023-03-31T05:13:47.066Z,99633.16
2023-03-31T05:16:16.326Z,99635.66
2023-03-31T05:18:46.454Z,99637.53
2023-03-31T05:21:16.331Z,99633.41
2023-03-31T05:23:45.141Z,99629.91
2023-03-31T05:26:15.518Z,99630.16
2023-03-31T05:28:43.628Z,99635.56
2023-03-31T05:31:13.468Z,99633.28
2023-03-31T05:33:42.136Z,99623.91
2023-03-31T05:36:12.108Z,99596.50
2023-03-31T05:38:41.556Z,99607.97
2023-03-31T05:41:10.334Z,99621.94
2023-03-31T05:43:40.427Z,99615.28
2023-03-31T05:46:09.033Z,99602.25
2023-03-31T05:48:38.518Z,99605.28
2023-03-31T05:51:06.601Z,99612.25
2023-03-31T05:53:35.014Z,99599.00
2023-03-31T05:56:06.447Z,99606.88
2023-03-31T05:58:35.699Z,99599.16
2023-03-31T06:01:07.369Z,99577.97
2023-03-31T06:03:36.890Z,99585.41
2023-03-31T06:06:06.329Z,99586.00
2023-03-31T06:08:34.398Z,99591.31
2023-03-31T06:11:05.185Z,99573.78
2023-03-31T06:13:33.301Z,99610.88
2023-03-31T06:16:02.126Z,99616.50
2023-03-31T06:18:33.325Z,99612.75
2023-03-31T06:21:01.880Z,99612.97
2023-03-31T06:23:29.846Z,99595.69
2023-03-31T06:26:02.222Z,99608.38
2023-03-31T06:28:30.599Z,99611.41
2023-03-31T06:31:02.873Z,99612.44
2023-03-31T06:33:32.475Z,99613.53
2023-03-31T06:36:01.878Z,99598.41
2023-03-31T06:38:29.917Z,99601.34
2023-03-31T06:40:57.882Z,99608.84
2023-03-31T06:43:25.808Z,99593.84
2023-03-31T06:45:54.286Z,99589.88
2023-03-31T06:48:23.633Z,99594.34
2023-03-31T06:50:54.923Z,99599.13
2023-03-31T06:53:23.372Z,99586.84
2023-03-31T06:55:51.349Z,99599.03
2023-03-31T06:58:19.268Z,99592.75
2023-03-31T07:00:47.274Z,99576.50
2023-03-31T07:03:17.097Z,99574.56
2023-03-31T07:05:49.938Z,99578.00
2023-03-31T07:08:19.552Z,99579.78
2023-03-31T07:10:48.879Z,99579.75
2023-03-31T07:13:17.472Z,99577.91
2023-03-31T07:15:48.129Z,99572.44
2023-03-31T07:18:16.619Z,99588.56
2023-03-31T07:20:45.093Z,99590.22
2023-03-31T07:23:13.036Z,99570.22
2023-03-31T07:25:42.306Z,99562.72
2023-03-31T07:28:10.328Z,99577.72
2023-03-31T07:30:38.407Z,99569.59
2023-03-31T07:33:07.470Z,99580.38
2023-03-31T07:35:38.585Z,99574.78
2023-03-31T07:38:06.609Z,99575.00
2023-03-31T07:40:34.564Z,99576.22
2023-03-31T07:43:04.416Z,99581.13
2023-03-31T07:45:33.022Z,99580.38
2023-03-31T07:48:01.067Z,99558.94
2023-03-31T07:50:29.305Z,99575.34
2023-03-31T07:52:57.190Z,99572.72
2023-03-31T07:55:26.445Z,99565.38
2023-03-31T07:57:54.557Z,99561.75
2023-03-31T08:00:24.814Z,99555.53
2023-03-31T08:02:52.904Z,99544.97
2023-03-31T08:05:22.021Z,99563.53
2023-03-31T08:07:51.462Z,99552.53
2023-03-31T08:10:22.302Z,99543.00
2023-03-31T08:12:50.321Z,99532.97
2023-03-31T08:15:18.812Z,99536.47
2023-03-31T08:17:48.209Z,99514.44
2023-03-31T08:20:16.230Z,99512.56
2023-03-31T08:22:44.128Z,99505.06
2023-03-31T08:25:12.479Z,99503.56
2023-03-31T08:27:41.681Z,99396.31
2023-03-31T08:30:12.471Z,99478.41
2023-03-31T08:32:40.543Z,99483.03
2023-03-31T08:35:10.621Z,99482.16
2023-03-31T08:37:38.758Z,99477.25
2023-03-31T08:40:09.745Z,99481.59
2023-03-31T08:42:43.218Z,99477.63
2023-03-31T08:45:20.015Z,99464.44
2023-03-31T08:47:50.227Z,99462.91
2023-03-31T08:50:25.023Z,99458.63
2023-03-31T08:53:00.586Z,99454.31
2023-03-31T08:55:34.216Z,99455.00
2023-03-31T08:58:09.976Z,99442.03
2023-03-31T09:00:45.520Z,99427.13
2023-03-31T09:03:19.990Z,99410.66
2023-03-31T09:06:01.143Z,99401.47
2023-03-31T09:08:39.496Z,99412.22
2023-03-31T09:11:14.337Z,99409.47
2023-03-31T09:14:16.387Z,99401.06
2023-03-31T09:16:53.456Z,99391.38
2023-03-31T09:19:31.886Z,99391.66
2023-03-31T09:22:01.939Z,99385.13
2023-03-31T09:24:32.873Z,99382.31
2023-03-31T09:27:04.192Z,99367.00
2023-03-31T09:29:42.868Z,99369.53
2023-03-31T09:32:16.604Z,99360.00
2023-03-31T09:34:45.825Z,99360.38
2023-03-31T09:37:15.250Z,99356.06
2023-03-31T09:39:43.779Z,99359.75
2023-03-31T09:42:14.424Z,99340.44
2023-03-31T09:44:45.898Z,99342.22
2023-03-31T09:47:20.493Z,99345.94
2023-03-31T09:49:54.085Z,99341.06
2023-03-31T09:52:30.802Z,99328.97
2023-03-31T09:55:01.485Z,99336.34
2023-03-31T09:57:33.511Z,99339.22
2023-03-31T10:00:14.249Z,99328.41
2023-03-31T10:02:45.934Z,99311.53
2023-03-31T10:05:40.125Z,99313.47
2023-03-31T10:08:22.341Z,99312.06
2023-03-31T10:10:52.266Z,99306.25
2023-03-31T10:13:23.812Z,99276.06
2023-03-31T10:15:54.525Z,99296.31
2023-03-31T10:18:32.218Z,99286.25
2023-03-31T10:21:01.327Z,99277.88
2023-03-31T10:23:33.390Z,99289.97
2023-03-31T10:26:02.392Z,99298.25
2023-03-31T10:28:35.864Z,99286.31
2023-03-31T10:31:04.810Z,99283.22
2023-03-31T10:33:34.841Z,99274.50
2023-03-31T10:36:09.487Z,99277.38
2023-03-31T10:38:42.590Z,99271.38
2023-03-31T10:41:11.294Z,99267.50
2023-03-31T10:43:42.545Z,99256.28
2023-03-31T10:46:11.646Z,99224.09
2023-03-31T10:48:42.232Z,99247.03
2023-03-31T10:51:16.254Z,99239.88
2023-03-31T10:53:47.483Z,99238.88
2023-03-31T10:56:35.163Z,99217.19
2023-03-31T10:59:17.937Z,99215.81
2023-03-31T11:02:00.949Z,99204.59
2023-03-31T11:04:53.951Z,99196.44
2023-03-31T11:07:40.039Z,99213.25
2023-03-31T11:10:29.062Z,99202.81
2023-03-31T11:13:01.737Z,99184.97
2023-03-31T11:15:39.306Z,99185.91
2023-03-31T11:18:31.020Z,99184.03
2023-03-31T11:21:09.038Z,99182.78
2023-03-31T11:23:43.131Z,99091.66
2023-03-31T11:26:20.023Z,99153.94
2023-03-31T11:29:01.432Z,99163.44
2023-03-31T11:31:40.513Z,99135.03
2023-03-31T11:34:23.915Z,99154.22
2023-03-31T11:37:17.151Z,99148.19
2023-03-31T11:39:59.561Z,99138.97
2023-03-31T11:42:35.401Z,99135.50
2023-03-31T11:45:13.154Z,99138.97
2023-03-31T11:47:44.831Z,99144.53
2023-03-31T11:50:16.293Z,99139.81
2023-03-31T11:52:51.746Z,99124.84
2023-03-31T11:55:22.630Z,99122.78
2023-03-31T11:58:00.564Z,99117.47
2023-03-31T12:00:32.708Z,99088.66
2023-03-31T12:03:08.167Z,99126.47
2023-03-31T12:05:40.963Z,99122.81
2023-03-31T12:08:15.866Z,99116.66
2023-03-31T12:10:49.286Z,99109.72
2023-03-31T12:13:37.834Z,99107.22
2023-03-31T12:16:10.589Z,99114.19
2023-03-31T12:18:43.836Z,99097.00
2023-03-31T12:21:12.429Z,99093.56
2023-03-31T12:23:45.649Z,99099.13
2023-03-31T12:26:28.726Z,99092.28
2023-03-31T12:29:03.314Z,99100.38
2023-03-31T12:31:33.669Z,99097.44
2023-03-31T12:34:05.412Z,99099.88
2023-03-31T12:36:55.274Z,99097.38
2023-03-31T12:39:38.487Z,99084.66
2023-03-31T12:42:28.005Z,99076.84
2023-03-31T12:45:03.620Z,99080.19
2023-03-31T12:47:52.914Z,99066.69
2023-03-31T12:50:42.190Z,99067.47
2023-03-31T12:53:20.948Z,99077.47
2023-03-31T12:55:52.011Z,99073.69
2023-03-31T12:58:40.080Z,99060.69
2023-03-31T13:01:17.917Z,99046.75
2023-03-31T13:03:52.087Z,99047.03
2023-03-31T13:06:52.574Z,99048.81
2023-03-31T13:09:48.351Z,99036.13
2023-03-31T13:12:19.122Z,99015.38
2023-03-31T13:14:49.376Z,99038.78
2023-03-31T13:17:27.246Z,99029.56
2023-03-31T13:19:56.738Z,99022.25
2023-03-31T13:22:33.768Z,99007.09
2023-03-31T13:25:37.951Z,99014.97
2023-03-31T13:28:13.953Z,99006.28
2023-03-31T13:30:54.624Z,99017.25
2023-03-31T13:33:27.987Z,98999.28
2023-03-31T13:36:11.587Z,99010.91
2023-03-31T13:38:50.524Z,98987.75
2023-03-31T13:41:46.250Z,99006.94
2023-03-31T13:44:39.773Z,99003.41
2023-03-31T13:47:48.496Z,98998.06
2023-03-31T13:50:37.236Z,98997.19
2023-03-31T13:53:17.873Z,99001.91
2023-03-31T13:56:02.093Z,98986.34
2023-03-31T13:59:12.579Z,98986.13
2023-03-31T14:02:17.078Z,98985.97
2023-03-31T14:05:18.766Z,98975.53
2023-03-31T14:07:51.745Z,98978.56
2023-03-31T14:10:29.082Z,98975.19
2023-03-31T14:13:11.772Z,98965.75
2023-03-31T14:15:43.720Z,98964.59
2023-03-31T14:18:16.704Z,98965.88
2023-03-31T14:21:03.395Z,98967.22
2023-03-31T14:23:44.773Z,98963.31
2023-03-31T14:26:22.200Z,98963.69
2023-03-31T14:29:10.627Z,98956.84
2023-03-31T14:31:45.155Z,98959.91
2023-03-31T14:34:39.907Z,98951.38
2023-03-31T14:37:11.579Z,98951.16
2023-03-31T14:39:43.264Z,98946.34
2023-03-31T14:42:15.144Z,98947.59
2023-03-31T14:44:48.748Z,98941.06
2023-03-31T14:47:23.110Z,98944.75
2023-03-31T14:50:01.122Z,98945.88
2023-03-31T14:52:33.531Z,98936.31
2023-03-31T14:55:03.001Z,98939.34
2023-03-31T14:57:35.229Z,98948.41
2023-03-31T15:00:17.620Z,98937.97
2023-03-31T15:02:47.423Z,98937.78
2023-03-31T15:05:26.602Z,98925.72
2023-03-31T15:07:58.789Z,98932.06
2023-03-31T15:10:30.374Z,98925.72
2023-03-31T15:12:58.295Z,98935.72
2023-03-31T15:15:28.350Z,98940.44
2023-03-31T15:17:56.497Z,98934.69
2023-03-31T15:20:31.708Z,98947.31
2023-03-31T15:23:05.788Z,98945.09
2023-03-31T15:25:36.692Z,98937.56
2023-03-31T15:28:10.211Z,98934.50
2023-03-31T15:30:40.009Z,98937.97
2023-03-31T15:35:58.734Z,98925.50
2023-03-31T15:38:31.920Z,98936.75
2023-03-31T15:41:01.021Z,98938.78
2023-03-31T15:43:31.417Z,98920.00
2023-03-31T15:46:02.023Z,98936.53
2023-03-31T15:48:34.227Z,98934.69
2023-03-31T15:51:03.640Z,98913.44
2023-03-31T15:53:36.977Z,98924.91
2023-03-31T15:56:05.675Z,98928.78
2023-03-31T15:59:04.503Z,98927.34
2023-03-31T16:01:36.774Z,98925.09
2023-03-31T16:04:09.468Z,98921.84
2023-03-31T16:06:46.491Z,98926.56
2023-03-31T16:09:18.512Z,98918.16
2023-03-31T16:11:50.494Z,98923.06
2023-03-31T16:14:22.610Z,98919.59
2023-03-31T16:16:58.300Z,98911.22
2023-03-31T16:19:30.303Z,98907.75
2023-03-31T16:22:02.204Z,98915.09
2023-03-31T16:24:33.285Z,98916.53
2023-03-31T16:27:06.462Z,98913.44
2023-03-31T16:29:35.276Z,98917.72
2023-03-31T16:32:12.629Z,98913.84
2023-03-31T16:34:58.664Z,98915.06
2023-03-31T16:37:27.920Z,98916.91
2023-03-31T16:39:56.656Z,98918.28
2023-03-31T16:42:25.137Z,98917.69
2023-03-31T16:47:35.142Z,98922.56
2023-03-31T16:50:07.240Z,98919.44
2023-03-31T16:52:35.967Z,98915.31
2023-03-31T16:55:04.062Z,98918.81
2023-03-31T16:57:32.300Z,98916.78
2023-03-31T17:00:00.802Z,98916.59
2023-03-31T17:02:30.248Z,98922.47
2023-03-31T17:05:06.176Z,98920.00
2023-03-31T17:07:40.791Z,98919.16
2023-03-31T17:10:10.045Z,98923.38
2023-03-31T17:12:38.102Z,98920.09
2023-03-31T17:15:06.750Z,98920.66
2023-03-31T17:17:36.884Z,98922.84
2023-03-31T17:20:05.431Z,98911.53
2023-03-31T17:22:33.540Z,98922.34
2023-03-31T17:25:01.758Z,98913.28
2023-03-31T17:27:30.355Z,98917.19
2023-03-31T17:29:58.281Z,98921.84
2023-03-31T17:32:26.659Z,98907.34
2023-03-31T17:34:56.129Z,98917.63
2023-03-31T17:37:24.882Z,98922.84
2023-03-31T17:39:53.463Z,98929.47
2023-03-31T17:42:21.389Z,98931.34
2023-03-31T17:44:51.688Z,98923.69
2023-03-31T17:47:21.593Z,98898.91
2023-03-31T17:49:49.533Z,98927.97
2023-03-31T17:52:18.819Z,98922.66
2023-03-31T17:54:48.637Z,98924.72
2023-03-31T17:57:17.798Z,98933.13
2023-03-31T17:59:46.807Z,98925.09
2023-03-31T18:02:15.539Z,98922.03
2023-03-31T18:04:43.476Z,98921.75
2023-03-31T18:07:11.706Z,98912.19
2023-03-31T18:09:41.002Z,98924.78
2023-03-31T18:12:09.712Z,98923.59
2023-03-31T18:14:38.318Z,98917.50
2023-03-31T18:17:06.725Z,98918.63
2023-03-31T18:19:34.634Z,98914.19
2023-03-31T18:22:03.055Z,98918.84
2023-03-31T18:24:32.390Z,98921.63
2023-03-31T18:27:01.666Z,98917.19
2023-03-31T18:29:29.677Z,98923.22
2023-03-31T18:31:57.749Z,98926.16
2023-03-31T18:34:25.859Z,98934.19
2023-03-31T18:36:54.173Z,98931.72
2023-03-31T18:39:22.150Z,98925.25
2023-03-31T18:41:50.549Z,98930.56
2023-03-31T18:44:21.780Z,98921.09
2023-03-31T18:46:49.790Z,98903.41
2023-03-31T18:49:20.086Z,98920.81
2023-03-31T18:51:47.983Z,98924.00
2023-03-31T18:54:17.058Z,98912.41
2023-03-31T18:56:45.115Z,98933.28
2023-03-31T18:59:13.180Z,98934.06
2023-03-31T19:01:42.494Z,98941.09
2023-03-31T19:04:10.839Z,98941.56
2023-03-31T19:06:38.867Z,98940.22
2023-03-31T19:09:06.999Z,98947.31
2023-03-31T19:11:34.906Z,98937.28
2023-03-31T19:14:02.805Z,98934.03
2023-03-31T19:16:31.234Z,98932.59
2023-03-31T19:19:00.487Z,98939.50
2023-03-31T19:21:32.486Z,98929.50
2023-03-31T19:24:00.456Z,98919.03
2023-03-31T19:26:29.695Z,98925.47
2023-03-31T19:28:58.131Z,98924.28
2023-03-31T19:31:26.075Z,98928.56
2023-03-31T19:33:54.052Z,98927.78
2023-03-31T19:36:23.368Z,98919.19
2023-03-31T19:38:51.669Z,98912.78
2023-03-31T19:41:19.864Z,98884.16
2023-03-31T19:43:48.046Z,98925.47
2023-03-31T19:46:15.979Z,98921.47
2023-03-31T19:48:44.789Z,98916.72
2023-03-31T19:51:12.707Z,98921.06
2023-03-31T19:53:41.974Z,98916.63
2023-03-31T19:56:12.686Z,98911.50
2023-03-31T19:58:41.422Z,98908.16
2023-03-31T20:01:16.031Z,98922.13
2023-03-31T20:03:44.349Z,98894.78
2023-03-31T20:06:15.750Z,98915.00
2023-03-31T20:08:45.049Z,98915.63
2023-03-31T20:11:15.397Z,98912.94
2023-03-31T20:13:44.720Z,98911.53
2023-03-31T20:16:14.725Z,98913.13
2023-03-31T20:18:43.705Z,98906.22
2023-03-31T20:21:13.937Z,98907.50
2023-03-31T20:23:43.034Z,98909.97
2023-03-31T20:26:15.100Z,98907.53
2023-03-31T20:28:43.550Z,98912.91
2023-03-31T20:31:14.056Z,98913.56
2023-03-31T20:33:43.346Z,98912.19
2023-03-31T20:36:13.437Z,98898.38
2023-03-31T20:38:44.209Z,98895.75
2023-03-31T20:41:15.695Z,98893.06
2023-03-31T20:43:43.629Z,98891.47
2023-03-31T20:46:12.434Z,98881.75
2023-03-31T20:48:42.387Z,98885.53
2023-03-31T20:51:12.231Z,98890.25
2023-03-31T20:53:42.777Z,98886.66
2023-03-31T20:56:14.067Z,98887.56
2023-03-31T20:58:44.471Z,98891.59
2023-03-31T21:01:13.158Z,98887.72
2023-03-31T21:03:42.351Z,98875.91
2023-03-31T21:06:12.160Z,98889.66
2023-03-31T21:08:40.881Z,98879.31
2023-03-31T21:11:10.016Z,98885.41
2023-03-31T21:13:38.193Z,98887.00
2023-03-31T21:16:07.908Z,98894.16
2023-03-31T21:18:37.739Z,98896.53
2023-03-31T21:21:07.415Z,98882.69
2023-03-31T21:23:35.792Z,98910.47
2023-03-31T21:26:05.718Z,98901.09
2023-03-31T21:28:36.325Z,98904.78
2023-03-31T21:31:08.859Z,98896.66
2023-03-31T21:33:38.537Z,98900.13
2023-03-31T21:36:07.983Z,98897.81
2023-03-31T21:38:36.389Z,98901.22
2023-03-31T21:41:08.155Z,98904.09
2023-03-31T21:43:36.821Z,98900.03
2023-03-31T21:46:05.097Z,98903.91
2023-03-31T21:48:34.473Z,98893.00
2023-03-31T21:51:03.182Z,98896.78
2023-03-31T21:53:32.503Z,98902.59
2023-03-31T21:56:01.100Z,98896.28
2023-03-31T21:58:30.429Z,98895.78
2023-03-31T22:00:59.332Z,98901.75
2023-03-31T22:03:28.886Z,98903.84
2023-03-31T22:05:59.095Z,98909.19
2023-03-31T22:08:28.025Z,98904.22
2023-03-31T22:10:57.604Z,98895.72
2023-03-31T22:13:25.814Z,98879.84
2023-03-31T22:15:53.903Z,98895.19
2023-03-31T22:18:22.103Z,98906.19
2023-03-31T22:20:50.886Z,98899.19
2023-03-31T22:23:20.635Z,98888.88
2023-03-31T22:25:48.824Z,98890.97
2023-03-31T22:28:17.432Z,98892.22
2023-03-31T22:30:45.612Z,98893.00
2023-03-31T22:33:13.604Z,98895.69
2023-03-31T22:35:41.653Z,98896.22
2023-03-31T22:38:09.594Z,98899.28
2023-03-31T22:40:38.853Z,98892.59
2023-03-31T22:43:06.768Z,98902.88
2023-03-31T22:45:36.466Z,98893.91
2023-03-31T22:48:04.542Z,98891.78
2023-03-31T22:50:32.817Z,98886.31
2023-03-31T22:53:00.746Z,98876.78
2023-03-31T22:55:28.713Z,98875.50
2023-03-31T22:57:58.128Z,98878.81
2023-03-31T23:00:26.131Z,98882.56
2023-03-31T23:02:54.103Z,98881.59
2023-03-31T23:05:24.414Z,98882.13
2023-03-31T23:07:52.397Z,98881.75
2023-03-31T23:10:21.025Z,98866.94
2023-03-31T23:12:49.177Z,98869.53
2023-03-31T23:15:18.646Z,98869.94
2023-03-31T23:17:46.621Z,98860.06
2023-03-31T23:20:15.589Z,98855.81
2023-03-31T23:22:43.565Z,98852.22
2023-03-31T23:25:11.581Z,98854.72
2023-03-31T23:27:39.498Z,98853.19
2023-03-31T23:30:08.810Z,98845.34
2023-03-31T23:32:38.169Z,98843.97
2023-03-31T23:35:07.972Z,98838.03
2023-03-31T23:37:36.121Z,98815.91
2023-03-31T23:40:04.765Z,98838.88
2023-03-31T23:42:32.686Z,98832.00
2023-03-31T23:45:00.611Z,98833.56
2023-03-31T23:47:28.732Z,98843.06
2023-03-31T23:49:58.186Z,98851.47
2023-03-31T23:52:27.325Z,98839.94
2023-03-31T23:54:55.771Z,98836.38
2023-03-31T23:57:23.748Z,98842.00
2023-03-31T23:59:52.493Z,98843.22
